createdAt,value
2022-11-20T00:01:06.648Z,9.18
2022-11-20T00:03:34.444Z,8.75
2022-11-20T00:06:02.958Z,10.48
2022-11-20T00:08:30.938Z,9.65
2022-11-20T00:10:58.712Z,9.60
2022-11-20T00:13:27.832Z,8.45
2022-11-20T00:15:59.459Z,13.73
2022-11-20T00:18:27.412Z,9.77
2022-11-20T00:20:55.533Z,8.35
2022-11-20T00:23:23.383Z,10.32
2022-11-20T00:25:51.158Z,6.75
2022-11-20T00:28:18.865Z,4.85
2022-11-20T00:30:48.052Z,8.52
2022-11-20T00:33:15.797Z,7.18
2022-11-20T00:35:43.606Z,9.15
2022-11-20T00:38:11.410Z,7.88
2022-11-20T00:40:39.155Z,5.78
2022-11-20T00:43:06.894Z,6.00
2022-11-20T00:45:34.667Z,6.55
2022-11-20T00:48:03.765Z,6.38
2022-11-20T00:50:31.552Z,8.60
2022-11-20T00:52:59.349Z,5.60
2022-11-20T00:55:27.051Z,5.88
2022-11-20T00:57:54.770Z,10.35
2022-11-20T01:00:22.512Z,7.07
2022-11-20T01:02:50.347Z,8.95
2022-11-20T01:05:19.402Z,4.68
2022-11-20T01:07:47.145Z,5.80
2022-11-20T01:10:14.932Z,6.97
2022-11-20T01:12:42.663Z,9.15
2022-11-20T01:15:11.199Z,8.25
2022-11-20T01:17:38.993Z,7.10
2022-11-20T01:20:07.866Z,4.45
2022-11-20T01:22:36.991Z,8.82
2022-11-20T01:25:05.201Z,5.72
2022-11-20T01:27:32.995Z,8.48
2022-11-20T01:30:01.387Z,7.28
2022-11-20T01:32:29.343Z,6.68
2022-11-20T01:34:57.111Z,10.45
2022-11-20T01:37:24.883Z,5.57
2022-11-20T01:39:53.999Z,5.35
2022-11-20T01:42:39.127Z,6.05
2022-11-20T01:45:40.581Z,10.10
2022-11-20T01:48:08.385Z,6.55
2022-11-20T01:50:36.415Z,7.90
2022-11-20T01:53:07.267Z,7.82
2022-11-20T01:55:41.154Z,6.53
2022-11-20T01:58:09.164Z,7.47
2022-11-20T02:00:37.214Z,6.40
2022-11-20T02:03:09.157Z,7.95
2022-11-20T02:05:40.901Z,8.68
2022-11-20T02:08:08.890Z,7.07
2022-11-20T02:10:38.006Z,5.78
2022-11-20T02:13:23.363Z,7.15
2022-11-20T02:15:52.014Z,6.20
2022-11-20T02:18:21.754Z,7.65
2022-11-20T02:20:52.896Z,7.55
2022-11-20T02:23:27.675Z,9.75
2022-11-20T02:25:57.846Z,4.80
2022-11-20T02:28:25.665Z,7.40
2022-11-20T02:30:53.410Z,6.80
2022-11-20T02:33:21.115Z,4.53
2022-11-20T02:35:49.254Z,6.25
2022-11-20T02:38:17.459Z,4.82
2022-11-20T02:40:45.401Z,7.22
2022-11-20T02:43:14.571Z,6.38
2022-11-20T02:45:42.424Z,5.80
2022-11-20T02:48:10.228Z,6.75
2022-11-20T02:50:40.775Z,5.47
2022-11-20T02:53:08.919Z,4.10
2022-11-20T02:55:37.365Z,6.43
2022-11-20T02:58:05.122Z,6.13
2022-11-20T03:00:34.621Z,7.47
2022-11-20T03:03:02.368Z,5.18
2022-11-20T03:05:30.117Z,5.07
2022-11-20T03:07:57.868Z,6.72
2022-11-20T03:10:25.618Z,6.75
2022-11-20T03:12:56.148Z,5.88
2022-11-20T03:15:24.033Z,5.97
2022-11-20T03:17:55.581Z,7.50
2022-11-20T03:20:23.353Z,6.80
2022-11-20T03:22:51.096Z,7.35
2022-11-20T03:25:18.804Z,5.72
2022-11-20T03:27:46.561Z,9.73
2022-11-20T03:30:15.084Z,5.05
2022-11-20T03:32:42.916Z,6.15
2022-11-20T03:35:12.364Z,9.70
2022-11-20T03:37:40.127Z,5.25
2022-11-20T03:40:08.973Z,8.80
2022-11-20T03:42:48.759Z,9.43
2022-11-20T03:45:17.919Z,9.25
2022-11-20T03:47:46.039Z,7.93
2022-11-20T03:50:15.744Z,7.03
2022-11-20T03:52:43.806Z,6.05
2022-11-20T03:55:11.691Z,5.70
2022-11-20T03:57:39.509Z,6.65
2022-11-20T04:00:08.500Z,6.70
2022-11-20T04:02:36.376Z,5.32
2022-11-20T04:05:04.215Z,10.18
2022-11-20T04:07:33.355Z,7.60
2022-11-20T04:10:01.092Z,5.40
2022-11-20T04:12:28.812Z,6.93
2022-11-20T04:14:56.528Z,11.73
2022-11-20T04:17:24.235Z,7.78
2022-11-20T04:19:52.025Z,8.18
2022-11-20T04:22:19.761Z,7.68
2022-11-20T04:24:48.856Z,7.50
2022-11-20T04:27:16.657Z,7.25
2022-11-20T04:29:44.407Z,6.47
2022-11-20T04:32:12.123Z,6.35
2022-11-20T04:34:39.904Z,6.25
2022-11-20T04:37:07.596Z,6.05
2022-11-20T04:39:35.353Z,5.45
2022-11-20T04:42:22.123Z,7.70
2022-11-20T04:44:49.910Z,6.25
2022-11-20T04:47:17.636Z,5.63
2022-11-20T04:49:45.389Z,4.35
2022-11-20T04:52:13.126Z,5.45
2022-11-20T04:54:40.865Z,7.03
2022-11-20T04:57:14.304Z,4.72
2022-11-20T04:59:42.527Z,6.38
2022-11-20T05:02:10.644Z,5.53
2022-11-20T05:04:38.835Z,5.22
2022-11-20T05:07:06.578Z,5.53
2022-11-20T05:09:34.395Z,6.00
2022-11-20T05:12:02.159Z,5.75
2022-11-20T05:14:31.284Z,5.30
2022-11-20T05:17:00.763Z,5.07
2022-11-20T05:19:28.557Z,6.57
2022-11-20T05:21:56.252Z,5.22
2022-11-20T05:24:24.034Z,7.47
2022-11-20T05:26:51.730Z,6.20
2022-11-20T05:29:19.664Z,8.55
2022-11-20T05:31:48.945Z,4.45
2022-11-20T05:34:16.753Z,5.70
2022-11-20T05:36:44.478Z,4.82
2022-11-20T05:39:12.211Z,7.38
2022-11-20T05:41:39.899Z,7.32
2022-11-20T05:44:07.625Z,7.38
2022-11-20T05:46:35.326Z,5.47
2022-11-20T05:49:04.467Z,4.55
2022-11-20T05:51:32.220Z,8.02
2022-11-20T05:54:00.383Z,7.35
2022-11-20T05:56:28.139Z,3.90
2022-11-20T05:58:55.899Z,4.80
2022-11-20T06:01:25.116Z,6.70
2022-11-20T06:03:53.249Z,4.80
2022-11-20T06:06:22.720Z,6.18
2022-11-20T06:08:51.147Z,6.38
2022-11-20T06:11:19.565Z,4.15
2022-11-20T06:13:48.181Z,5.22
2022-11-20T06:16:17.991Z,3.83
2022-11-20T06:18:45.730Z,5.40
2022-11-20T06:21:15.440Z,6.22
2022-11-20T06:23:46.237Z,4.60
2022-11-20T06:26:16.699Z,5.00
2022-11-20T06:28:44.876Z,6.43
2022-11-20T06:31:14.353Z,7.03
2022-11-20T06:33:42.667Z,4.65
2022-11-20T06:36:13.393Z,4.82
2022-11-20T06:38:41.682Z,4.50
2022-11-20T06:41:13.676Z,4.53
2022-11-20T06:43:41.439Z,5.18
2022-11-20T06:46:10.696Z,5.00
2022-11-20T06:48:38.450Z,6.40
2022-11-20T06:51:07.011Z,4.90
2022-11-20T06:53:34.969Z,4.88
2022-11-20T06:56:02.744Z,4.25
2022-11-20T06:58:34.167Z,6.13
2022-11-20T07:01:02.695Z,4.75
2022-11-20T07:03:30.922Z,5.90
2022-11-20T07:05:59.440Z,5.35
2022-11-20T07:08:27.596Z,4.63
2022-11-20T07:10:59.540Z,4.88
2022-11-20T07:13:27.464Z,3.10
2022-11-20T07:15:57.011Z,4.75
2022-11-20T07:18:24.708Z,6.60
2022-11-20T07:20:52.461Z,6.07
2022-11-20T07:23:20.179Z,4.38
2022-11-20T07:25:47.906Z,3.90
2022-11-20T07:28:15.662Z,4.72
2022-11-20T07:30:43.438Z,5.70
2022-11-20T07:33:12.518Z,3.80
2022-11-20T07:35:40.251Z,5.10
2022-11-20T07:38:08.975Z,4.55
2022-11-20T07:40:36.769Z,8.35
2022-11-20T07:43:04.566Z,5.00
2022-11-20T07:45:32.335Z,4.47
2022-11-20T07:48:00.105Z,4.85
2022-11-20T07:50:29.203Z,6.88
2022-11-20T07:53:03.311Z,3.72
2022-11-20T07:55:31.111Z,4.38
2022-11-20T07:57:59.424Z,5.72
2022-11-20T08:00:28.325Z,4.43
2022-11-20T08:02:56.324Z,6.35
2022-11-20T08:05:24.653Z,4.50
2022-11-20T08:07:53.805Z,6.20
2022-11-20T08:10:21.534Z,5.20
2022-11-20T08:13:08.804Z,3.55
2022-11-20T08:15:37.812Z,6.05
2022-11-20T08:18:29.904Z,3.88
2022-11-20T08:20:55.358Z,6.93
2022-11-20T08:23:25.117Z,5.35
2022-11-20T08:25:52.893Z,6.38
2022-11-20T08:28:22.337Z,6.03
2022-11-20T08:30:51.596Z,7.20
2022-11-20T08:33:20.218Z,4.20
2022-11-20T08:35:48.108Z,5.25
2022-11-20T08:38:15.832Z,8.32
2022-11-20T08:41:06.161Z,6.75
2022-11-20T08:43:34.449Z,6.18
2022-11-20T08:46:02.281Z,11.65
2022-11-20T08:48:30.036Z,6.25
2022-11-20T08:51:00.380Z,5.95
2022-11-20T08:53:28.741Z,5.35
2022-11-20T08:55:58.510Z,6.03
2022-11-20T08:58:26.542Z,10.65
2022-11-20T09:00:54.388Z,6.28
2022-11-20T09:03:22.389Z,6.80
2022-11-20T09:05:50.538Z,11.10
2022-11-20T09:08:18.251Z,9.32
2022-11-20T09:10:45.969Z,9.57
2022-11-20T09:13:15.098Z,7.38
2022-11-20T09:15:42.804Z,5.05
2022-11-20T09:18:10.525Z,8.02
2022-11-20T09:20:38.672Z,4.30
2022-11-20T09:23:06.524Z,6.68
2022-11-20T09:25:34.282Z,4.05
2022-11-20T09:28:02.107Z,4.50
2022-11-20T09:30:31.875Z,6.45
2022-11-20T09:32:59.719Z,6.70
2022-11-20T09:35:27.695Z,5.97
2022-11-20T09:37:55.418Z,5.82
2022-11-20T09:40:25.408Z,4.63
2022-11-20T09:42:59.179Z,7.00
2022-11-20T09:45:39.182Z,3.97
2022-11-20T09:48:20.052Z,4.35
2022-11-20T09:50:53.562Z,5.40
2022-11-20T09:53:31.916Z,3.88
2022-11-20T09:56:03.007Z,3.58
2022-11-20T09:58:35.871Z,5.25
2022-11-20T10:01:13.701Z,3.75
2022-11-20T10:03:50.055Z,7.40
2022-11-20T10:06:21.713Z,2.63
2022-11-20T10:08:57.635Z,4.05
2022-11-20T10:11:35.948Z,4.47
2022-11-20T10:14:16.785Z,4.50
2022-11-20T10:16:56.277Z,4.65
2022-11-20T10:19:41.041Z,4.47
2022-11-20T10:22:16.346Z,5.53
2022-11-20T10:24:50.059Z,4.68
2022-11-20T10:27:37.362Z,4.00
2022-11-20T10:30:11.221Z,2.65
2022-11-20T10:32:42.320Z,4.13
2022-11-20T10:35:22.143Z,4.20
2022-11-20T10:37:56.496Z,5.13
2022-11-20T10:40:30.949Z,2.67
2022-11-20T10:43:03.550Z,3.97
2022-11-20T10:45:46.569Z,2.65
2022-11-20T10:48:19.059Z,4.68
2022-11-20T10:51:05.352Z,3.33
2022-11-20T10:53:46.113Z,3.22
2022-11-20T10:56:21.169Z,3.65
2022-11-20T10:59:02.359Z,3.58
2022-11-20T11:01:30.400Z,4.38
2022-11-20T11:04:00.808Z,3.03
2022-11-20T11:06:35.904Z,1.65
2022-11-20T11:09:11.157Z,4.32
2022-11-20T11:11:40.450Z,3.30
2022-11-20T11:14:08.789Z,3.50
2022-11-20T11:16:36.917Z,2.85
2022-11-20T11:19:14.583Z,3.53
2022-11-20T11:21:53.833Z,4.30
2022-11-20T11:24:42.855Z,3.15
2022-11-20T11:27:17.259Z,2.72
2022-11-20T11:29:45.947Z,1.67
2022-11-20T11:32:15.339Z,1.67
2022-11-20T11:34:44.597Z,1.73
2022-11-20T11:37:19.105Z,2.13
2022-11-20T11:39:55.118Z,5.03
2022-11-20T11:42:32.315Z,1.60
2022-11-20T11:45:07.532Z,4.60
2022-11-20T11:47:45.000Z,2.33
2022-11-20T11:50:20.113Z,3.70
2022-11-20T11:52:56.427Z,18.45
2022-11-20T11:55:31.953Z,13.38
2022-11-20T11:58:11.627Z,6.18
2022-11-20T12:00:44.064Z,2.72
2022-11-20T12:03:18.057Z,3.58
2022-11-20T12:05:49.582Z,4.43
2022-11-20T12:08:22.429Z,5.13
2022-11-20T12:10:55.722Z,4.38
2022-11-20T12:13:34.426Z,6.28
2022-11-20T12:16:03.889Z,4.25
2022-11-20T12:18:32.489Z,8.38
2022-11-20T12:21:14.762Z,4.80
2022-11-20T12:23:51.598Z,3.83
2022-11-20T12:26:30.065Z,4.88
2022-11-20T12:29:10.258Z,5.05
2022-11-20T12:31:57.957Z,4.13
2022-11-20T12:34:45.811Z,6.55
2022-11-20T12:37:28.476Z,5.15
2022-11-20T12:40:00.783Z,4.93
2022-11-20T12:43:08.730Z,5.18
2022-11-20T12:45:55.384Z,5.50
2022-11-20T12:48:46.401Z,4.80
2022-11-20T12:51:46.566Z,6.50
2022-11-20T12:54:48.112Z,3.35
2022-11-20T12:57:25.172Z,3.00
2022-11-20T13:00:10.780Z,4.75
2022-11-20T13:03:00.949Z,6.20
2022-11-20T13:05:37.140Z,5.72
2022-11-20T13:08:09.440Z,7.97
2022-11-20T13:10:45.599Z,8.48
2022-11-20T13:13:21.659Z,11.80
2022-11-20T13:15:55.951Z,6.28
2022-11-20T13:18:23.809Z,3.38
2022-11-20T13:20:52.688Z,5.90
2022-11-20T13:23:27.757Z,6.80
2022-11-20T13:26:08.491Z,3.20
2022-11-20T13:28:37.899Z,5.03
2022-11-20T13:31:05.746Z,5.30
2022-11-20T13:33:36.062Z,4.35
2022-11-20T13:36:05.873Z,7.07
2022-11-20T13:38:44.860Z,4.80
2022-11-20T13:41:32.276Z,4.35
2022-11-20T13:44:06.471Z,7.50
2022-11-20T13:46:41.992Z,7.57
2022-11-20T13:49:12.555Z,5.85
2022-11-20T13:51:46.346Z,7.88
2022-11-20T13:54:54.183Z,40.60
2022-11-20T13:57:56.945Z,18.23
2022-11-20T14:00:26.619Z,4.90
2022-11-20T14:03:04.212Z,6.28
2022-11-20T14:05:36.491Z,8.55
2022-11-20T14:08:05.795Z,8.45
2022-11-20T14:10:33.883Z,7.22
2022-11-20T14:13:17.457Z,5.45
2022-11-20T14:15:45.479Z,8.52
2022-11-20T14:18:15.553Z,8.82
2022-11-20T14:20:44.817Z,11.88
2022-11-20T14:23:12.861Z,7.28
2022-11-20T14:25:44.565Z,9.32
2022-11-20T14:28:25.792Z,8.05
2022-11-20T14:30:54.126Z,9.27
2022-11-20T14:33:25.718Z,8.77
2022-11-20T14:35:55.828Z,6.93
2022-11-20T14:38:27.195Z,8.30
2022-11-20T14:40:55.163Z,6.90
2022-11-20T14:43:26.982Z,6.90
2022-11-20T14:45:59.316Z,5.80
2022-11-20T14:48:33.387Z,10.18
2022-11-20T14:51:01.328Z,9.68
2022-11-20T14:53:29.146Z,15.73
2022-11-20T14:55:59.597Z,10.18
2022-11-20T14:58:32.361Z,11.27
2022-11-20T15:01:02.652Z,6.45
2022-11-20T15:03:34.810Z,10.13
2022-11-20T15:06:03.209Z,9.88
2022-11-20T15:08:31.384Z,9.38
2022-11-20T15:10:59.653Z,11.07
2022-11-20T15:13:33.259Z,7.47
2022-11-20T15:16:03.355Z,9.93
2022-11-20T15:18:34.176Z,7.05
2022-11-20T15:21:04.926Z,10.15
2022-11-20T15:23:32.838Z,7.78
2022-11-20T15:26:00.736Z,7.22
2022-11-20T15:28:33.036Z,8.18
2022-11-20T15:31:01.161Z,9.10
2022-11-20T15:33:29.009Z,8.70
2022-11-20T15:35:56.830Z,7.20
2022-11-20T15:38:24.873Z,11.52
2022-11-20T15:40:52.673Z,8.25
2022-11-20T15:43:23.810Z,8.25
2022-11-20T15:45:55.233Z,11.70
2022-11-20T15:48:26.620Z,8.82
2022-11-20T15:50:59.159Z,8.55
2022-11-20T15:53:27.054Z,7.97
2022-11-20T15:55:54.854Z,9.50
2022-11-20T15:58:23.941Z,6.57
2022-11-20T16:00:53.209Z,11.32
2022-11-20T16:03:21.685Z,8.73
2022-11-20T16:05:49.543Z,8.90
2022-11-20T16:08:17.397Z,8.55
2022-11-20T16:10:45.211Z,10.50
2022-11-20T16:13:35.507Z,9.38
2022-11-20T16:16:07.546Z,11.77
2022-11-20T16:18:35.605Z,8.75
2022-11-20T16:21:03.479Z,11.50
2022-11-20T16:23:31.347Z,11.90
2022-11-20T16:25:59.083Z,11.98
2022-11-20T16:28:26.928Z,12.48
2022-11-20T16:30:54.666Z,8.32
2022-11-20T16:33:23.775Z,11.88
2022-11-20T16:35:51.546Z,10.13
2022-11-20T16:38:19.309Z,15.05
2022-11-20T16:40:47.213Z,11.27
2022-11-20T16:43:15.983Z,12.80
2022-11-20T16:45:45.200Z,11.13
2022-11-20T16:48:17.373Z,10.80
2022-11-20T16:50:51.812Z,12.68
2022-11-20T16:53:20.876Z,10.88
2022-11-20T16:55:48.958Z,8.88
2022-11-20T16:58:17.154Z,16.15
2022-11-20T17:00:51.155Z,15.70
2022-11-20T17:03:20.857Z,17.60
2022-11-20T17:05:50.079Z,14.38
2022-11-20T17:08:17.898Z,14.32
2022-11-20T17:10:45.726Z,10.85
2022-11-20T17:13:13.543Z,12.20
2022-11-20T17:15:41.393Z,14.32
2022-11-20T17:18:09.161Z,12.63
2022-11-20T17:20:36.965Z,14.20
2022-11-20T17:23:06.201Z,12.30
2022-11-20T17:25:34.513Z,11.45
2022-11-20T17:28:02.401Z,14.52
2022-11-20T17:30:30.186Z,16.00
2022-11-20T17:32:58.037Z,13.57
2022-11-20T17:35:25.942Z,10.68
2022-11-20T17:37:54.090Z,14.27
2022-11-20T17:40:27.328Z,13.32
2022-11-20T17:42:55.960Z,11.60
2022-11-20T17:45:23.812Z,14.50
2022-11-20T17:47:51.668Z,15.48
2022-11-20T17:50:19.650Z,18.27
2022-11-20T17:52:47.463Z,15.80
2022-11-20T17:55:16.099Z,12.43
2022-11-20T17:57:53.266Z,20.17
2022-11-20T18:00:22.129Z,12.07
2022-11-20T18:02:50.383Z,11.77
2022-11-20T18:05:18.381Z,13.20
2022-11-20T18:07:46.250Z,15.60
2022-11-20T18:10:14.208Z,12.07
2022-11-20T18:12:41.980Z,11.77
2022-11-20T18:15:11.321Z,14.02
2022-11-20T18:17:39.153Z,12.48
2022-11-20T18:22:57.110Z,9.85
2022-11-20T18:25:25.157Z,11.63
2022-11-20T18:27:52.947Z,6.75
2022-11-20T18:30:22.285Z,10.63
2022-11-20T18:32:50.830Z,7.65
2022-11-20T18:35:18.748Z,9.18
2022-11-20T18:37:46.759Z,10.57
2022-11-20T18:40:15.108Z,9.82
2022-11-20T18:43:00.329Z,12.50
2022-11-20T18:45:30.312Z,11.48
2022-11-20T18:47:58.162Z,13.18
2022-11-20T18:50:25.984Z,7.63
2022-11-20T18:52:53.761Z,11.23
2022-11-20T18:55:24.300Z,15.60
2022-11-20T18:57:52.617Z,12.02
2022-11-20T19:00:20.848Z,12.80
2022-11-20T19:02:53.397Z,13.20
2022-11-20T19:05:21.295Z,12.90
2022-11-20T19:07:49.186Z,16.27
2022-11-20T19:10:20.157Z,18.80
2022-11-20T19:12:48.017Z,13.00
2022-11-20T19:15:15.929Z,17.48
2022-11-20T19:17:43.759Z,11.45
2022-11-20T19:20:13.501Z,14.27
2022-11-20T19:22:41.275Z,9.95
2022-11-20T19:25:09.653Z,14.32
2022-11-20T19:27:37.484Z,10.82
2022-11-20T19:30:06.307Z,14.25
2022-11-20T19:32:35.214Z,13.98
2022-11-20T19:35:03.563Z,12.05
2022-11-20T19:37:35.141Z,13.40
2022-11-20T19:40:04.655Z,9.80
2022-11-20T19:42:32.784Z,13.07
2022-11-20T19:45:00.556Z,14.32
2022-11-20T19:47:52.820Z,13.80
2022-11-20T19:50:16.942Z,12.82
2022-11-20T19:52:46.195Z,10.88
2022-11-20T19:55:14.419Z,13.05
2022-11-20T19:57:42.193Z,13.95
2022-11-20T20:00:12.251Z,12.25
2022-11-20T20:02:40.189Z,11.35
2022-11-20T20:05:08.653Z,9.32
2022-11-20T20:07:36.527Z,15.65
2022-11-20T20:10:06.629Z,11.68
2022-11-20T20:12:34.472Z,11.02
2022-11-20T20:15:04.151Z,11.05
2022-11-20T20:17:31.999Z,11.88
2022-11-20T20:19:59.828Z,11.68
2022-11-20T20:22:27.628Z,13.38
2022-11-20T20:24:55.419Z,9.68
2022-11-20T20:27:24.622Z,12.00
2022-11-20T20:29:52.553Z,9.05
2022-11-20T20:32:20.387Z,13.25
2022-11-20T20:34:48.249Z,12.00
2022-11-20T20:37:16.064Z,12.85
2022-11-20T20:39:43.881Z,10.25
2022-11-20T20:42:11.642Z,9.70
2022-11-20T20:44:57.953Z,12.57
2022-11-20T20:47:33.853Z,11.02
2022-11-20T20:50:01.933Z,13.45
2022-11-20T20:52:30.135Z,12.00
2022-11-20T20:54:57.981Z,15.07
2022-11-20T20:57:27.645Z,12.27
2022-11-20T20:59:56.961Z,10.50
2022-11-20T21:02:25.460Z,9.27
2022-11-20T21:04:53.641Z,8.75
2022-11-20T21:07:21.683Z,10.82
2022-11-20T21:09:49.519Z,10.45
2022-11-20T21:12:17.396Z,13.82
2022-11-20T21:14:45.258Z,11.25
2022-11-20T21:17:15.447Z,9.27
2022-11-20T21:19:43.433Z,10.43
2022-11-20T21:22:10.200Z,14.80
2022-11-20T21:24:38.088Z,11.00
2022-11-20T21:27:06.824Z,10.40
2022-11-20T21:29:34.707Z,10.27
2022-11-20T21:32:02.576Z,9.88
2022-11-20T21:34:31.813Z,11.50
2022-11-20T21:36:59.596Z,11.68
2022-11-20T21:39:27.326Z,10.15
2022-11-20T21:41:55.326Z,8.63
2022-11-20T21:44:30.929Z,12.30
2022-11-20T21:46:59.226Z,10.65
2022-11-20T21:49:27.020Z,11.13
2022-11-20T21:51:56.134Z,9.85
2022-11-20T21:54:24.139Z,10.75
2022-11-20T21:56:52.219Z,11.02
2022-11-20T21:59:20.026Z,13.00
2022-11-20T22:01:47.892Z,14.23
2022-11-20T22:04:16.435Z,9.52
2022-11-20T22:06:44.370Z,13.23
2022-11-20T22:09:14.381Z,10.45
2022-11-20T22:11:42.253Z,15.82
2022-11-20T22:14:22.278Z,13.27
2022-11-20T22:16:52.062Z,10.02
2022-11-20T22:19:21.179Z,11.55
2022-11-20T22:21:50.453Z,9.23
2022-11-20T22:24:21.579Z,11.85
2022-11-20T22:26:50.255Z,10.77
2022-11-20T22:29:20.717Z,11.25
2022-11-20T22:31:49.033Z,9.35
2022-11-20T22:34:16.831Z,12.18
2022-11-20T22:36:44.702Z,7.00
2022-11-20T22:39:12.456Z,8.93
2022-11-20T22:41:41.612Z,11.45
2022-11-20T22:44:09.648Z,12.93
2022-11-20T22:46:38.317Z,9.02
2022-11-20T22:49:08.351Z,11.23
2022-11-20T22:51:38.377Z,8.68
2022-11-20T22:54:06.588Z,9.27
2022-11-20T22:56:35.222Z,11.00
2022-11-20T22:59:04.909Z,9.13
2022-11-20T23:01:34.091Z,6.30
2022-11-20T23:04:03.479Z,10.85
2022-11-20T23:06:34.032Z,9.20
2022-11-20T23:09:02.231Z,10.75
2022-11-20T23:11:31.572Z,11.23
2022-11-20T23:14:01.490Z,7.60
2022-11-20T23:16:32.321Z,8.32
2022-11-20T23:19:01.912Z,9.57
2022-11-20T23:21:30.321Z,7.53
2022-11-20T23:23:59.257Z,7.70
2022-11-20T23:26:28.930Z,8.60
2022-11-20T23:28:58.607Z,6.85
2022-11-20T23:31:27.711Z,7.15
2022-11-20T23:33:56.919Z,11.20
2022-11-20T23:36:24.707Z,8.20
2022-11-20T23:38:52.512Z,7.40
2022-11-20T23:41:20.297Z,8.27
2022-11-20T23:43:48.052Z,11.18
2022-11-20T23:46:16.998Z,8.88
2022-11-20T23:48:45.811Z,10.70
2022-11-20T23:51:15.351Z,11.73
2022-11-20T23:53:43.415Z,8.80
2022-11-20T23:56:14.139Z,12.32
2022-11-20T23:58:42.346Z,6.40
